AGGN/GZO METAR and TAF weather

Enter ICAO airport designator
Station Type Date Time Source
AGGN METAR UTC NOAA

Error!


Station Type Date Time Source
AGGN Decoded METAR UTC NOAA

Error!

Station Type Date Time Source
AGGN TAF 2021/10/31 06:18 UTC NOAA

TAF
AMD AGGN 310618Z 3106/0106 09010KT 9999 SCT018

Example: see airport list